Time;durP1;ratioP1;P1;durP2;ratioP2;P2;SDS_P1;SDS_P2;PMS_P1;PMS_P2;Temp;Humidity;BMP_temperature;BMP_pressure;BME280_temperature;BME280_humidity;BME280_pressure;Samples;Min_cycle;Max_cycle;Signal;HPM_P1;HPM_P2
2022/05/14 03:02:06;;;;;;;1.27;0.80;;;26.50;45.40;;;;;;5201120;23;46342;-60
2022/05/14 03:04:36;;;;;;;1.75;0.85;;;26.50;45.40;;;;;;4954990;28;45892;-60
2022/05/14 03:07:03;;;;;;;1.17;0.65;;;26.50;45.40;;;;;;4973745;28;45870;-62
2022/05/14 03:09:28;;;;;;;2.10;0.93;;;26.50;45.40;;;;;;4962830;28;44836;-61
2022/05/14 03:11:54;;;;;;;1.17;0.70;;;26.50;45.40;;;;;;4963185;28;45490;-61
2022/05/14 03:14:20;;;;;;;1.02;0.60;;;26.50;45.50;;;;;;4960727;28;45165;-61
2022/05/14 03:16:45;;;;;;;1.48;0.70;;;26.50;45.40;;;;;;4956153;28;45444;-62
2022/05/14 03:19:11;;;;;;;1.10;0.73;;;26.50;45.40;;;;;;4956765;28;45547;-61
2022/05/14 03:21:37;;;;;;;1.27;0.73;;;26.50;45.40;;;;;;4960562;28;47548;-62
2022/05/14 03:24:03;;;;;;;1.50;0.98;;;26.50;45.50;;;;;;4972504;28;45288;-60
2022/05/14 03:26:29;;;;;;;2.03;0.73;;;26.50;45.50;;;;;;4972796;28;45132;-61
2022/05/14 03:28:54;;;;;;;1.58;1.00;;;26.50;45.50;;;;;;4982934;28;45234;-63
2022/05/14 03:31:20;;;;;;;0.82;0.75;;;26.50;45.50;;;;;;4945668;28;47572;-62
2022/05/14 03:33:46;;;;;;;1.00;0.80;;;26.40;45.40;;;;;;4985446;28;45412;-62
2022/05/14 03:36:11;;;;;;;1.15;0.63;;;26.40;45.50;;;;;;4956653;28;45276;-62
2022/05/14 03:38:37;;;;;;;1.42;0.50;;;26.40;45.50;;;;;;4974502;28;44935;-62
2022/05/14 03:41:03;;;;;;;1.13;0.80;;;26.40;45.50;;;;;;4959627;28;46474;-62
2022/05/14 03:43:30;;;;;;;1.60;0.80;;;26.40;45.50;;;;;;4957116;28;45680;-62
2022/05/14 03:45:56;;;;;;;1.67;0.90;;;26.40;45.50;;;;;;4960495;28;45350;-62
2022/05/14 03:48:21;;;;;;;1.13;0.70;;;26.40;45.60;;;;;;4978316;28;45205;-62
2022/05/14 03:50:47;;;;;;;1.70;0.70;;;26.40;45.50;;;;;;4982914;28;47330;-62
2022/05/14 03:53:12;;;;;;;1.55;0.80;;;26.40;45.60;;;;;;4980121;28;45309;-62
2022/05/14 03:55:38;;;;;;;1.83;0.82;;;26.40;45.60;;;;;;4955532;28;45017;-62
2022/05/14 03:58:04;;;;;;;2.08;0.77;;;26.40;45.60;;;;;;4976684;28;45037;-62
2022/05/14 04:00:30;;;;;;;0.85;0.65;;;26.40;45.60;;;;;;4951272;28;46779;-62
2022/05/14 04:02:56;;;;;;;0.80;0.70;;;26.40;45.60;;;;;;4956985;28;46080;-62
2022/05/14 04:05:21;;;;;;;1.05;0.82;;;26.40;45.60;;;;;;4975002;28;45109;-62
2022/05/14 04:07:47;;;;;;;1.27;0.73;;;26.40;45.60;;;;;;4948668;28;45174;-62
2022/05/14 04:10:13;;;;;;;1.27;0.88;;;26.40;45.70;;;;;;4941823;28;47787;-62
2022/05/14 04:12:39;;;;;;;1.45;0.70;;;26.40;45.70;;;;;;4977788;28;45263;-61
2022/05/14 04:15:06;;;;;;;0.90;0.75;;;26.40;45.70;;;;;;4977697;28;45096;-61
2022/05/14 04:17:31;;;;;;;0.80;0.75;;;26.30;45.70;;;;;;4965632;28;44850;-62
2022/05/14 04:19:57;;;;;;;1.23;0.90;;;26.30;45.70;;;;;;4978339;28;46588;-62
2022/05/14 04:22:22;;;;;;;1.70;1.00;;;26.30;45.60;;;;;;4974878;28;45258;-62
2022/05/14 04:24:48;;;;;;;2.35;0.65;;;26.30;45.70;;;;;;4960277;28;44768;-61
2022/05/14 04:27:14;;;;;;;3.50;0.88;;;26.30;45.70;;;;;;4976740;28;45259;-62
2022/05/14 04:29:39;;;;;;;2.08;0.85;;;26.30;45.70;;;;;;4974550;28;45227;-62
2022/05/14 04:32:06;;;;;;;2.28;0.60;;;26.30;45.70;;;;;;4938990;28;45443;-62
2022/05/14 04:34:31;;;;;;;0.70;0.60;;;26.30;45.70;;;;;;4974063;28;45101;-61
2022/05/14 04:36:57;;;;;;;1.73;0.75;;;26.30;45.70;;;;;;4957336;28;45181;-61
2022/05/14 04:39:31;;;;;;;1.27;0.65;;;26.30;45.70;;;;;;4959589;28;45384;-61
2022/05/14 04:42:01;;;;;;;1.00;0.88;;;26.30;45.80;;;;;;4940207;28;44739;-60
2022/05/14 04:44:28;;;;;;;2.83;1.00;;;26.30;45.80;;;;;;4958990;28;45151;-62
2022/05/14 04:46:54;;;;;;;0.98;0.70;;;26.30;45.80;;;;;;4975609;28;45175;-61
2022/05/14 04:49:19;;;;;;;1.15;0.80;;;26.30;45.80;;;;;;4972427;28;46607;-61
2022/05/14 04:51:45;;;;;;;0.73;0.60;;;26.30;45.80;;;;;;4978405;28;45524;-63
2022/05/14 04:54:11;;;;;;;2.15;0.70;;;26.30;45.80;;;;;;4979103;28;45046;-62
2022/05/14 04:56:37;;;;;;;1.45;0.77;;;26.30;45.80;;;;;;4956695;28;45513;-62
2022/05/14 04:59:03;;;;;;;1.23;0.60;;;26.30;45.80;;;;;;4964676;28;45160;-62
2022/05/14 05:01:28;;;;;;;1.23;0.75;;;26.30;46.40;;;;;;4956219;28;44821;-61
2022/05/14 05:03:54;;;;;;;1.20;0.75;;;26.30;45.80;;;;;;4943066;28;45339;-62
2022/05/14 05:06:23;;;;;;;0.90;0.70;;;26.30;45.80;;;;;;4946797;28;45384;-62
2022/05/14 05:08:50;;;;;;;0.77;0.55;;;26.30;46.00;;;;;;4929704;28;45271;-61
2022/05/14 05:11:15;;;;;;;1.05;0.60;;;26.20;45.80;;;;;;4941552;28;45632;-60
2022/05/14 05:13:41;;;;;;;1.55;0.68;;;26.30;45.80;;;;;;4962805;28;45286;-60
2022/05/14 05:16:06;;;;;;;0.98;0.80;;;26.30;45.80;;;;;;4975028;28;45186;-61
2022/05/14 05:18:32;;;;;;;0.73;0.60;;;26.30;45.70;;;;;;4962578;28;47023;-60
2022/05/14 05:20:58;;;;;;;0.80;0.70;;;26.40;45.80;;;;;;4963365;28;45299;-61
2022/05/14 05:23:24;;;;;;;1.65;0.73;;;26.30;45.70;;;;;;4960436;28;45186;-61
2022/05/14 05:25:50;;;;;;;0.60;0.50;;;26.30;45.70;;;;;;4975807;28;44718;-61
2022/05/14 05:28:16;;;;;;;1.10;0.70;;;26.30;45.70;;;;;;4958637;28;46909;-62
2022/05/14 05:30:42;;;;;;;1.30;0.60;;;26.40;45.70;;;;;;4942781;28;45281;-61
2022/05/14 05:33:11;;;;;;;1.35;0.73;;;26.30;45.70;;;;;;4962544;28;45441;-60
2022/05/14 05:35:37;;;;;;;0.85;0.77;;;26.30;45.70;;;;;;4940574;28;45558;-61
2022/05/14 05:38:02;;;;;;;1.73;0.80;;;26.30;45.70;;;;;;4961119;28;47537;-61
2022/05/14 05:40:28;;;;;;;0.77;0.50;;;26.40;45.70;;;;;;4979063;28;45245;-60
2022/05/14 05:42:54;;;;;;;1.05;0.88;;;26.30;45.70;;;;;;4975192;28;45267;-60
2022/05/14 05:45:19;;;;;;;0.95;0.60;;;26.40;45.70;;;;;;4975552;28;45181;-61
2022/05/14 05:47:45;;;;;;;0.75;0.50;;;26.40;45.80;;;;;;4960145;28;48016;-59
2022/05/14 05:50:11;;;;;;;1.38;0.65;;;26.30;45.70;;;;;;4955852;28;45868;-60
2022/05/14 05:52:37;;;;;;;0.93;0.65;;;26.40;45.80;;;;;;4945847;28;45217;-60
2022/05/14 05:58:04;;;;;;;1.10;0.77;;;26.30;45.70;;;;;;4896261;28;46308;-61
2022/05/14 06:00:29;;;;;;;0.70;0.52;;;26.30;45.80;;;;;;4958958;28;45216;-61
2022/05/14 06:02:55;;;;;;;0.90;0.52;;;26.40;45.80;;;;;;4975801;28;45129;-61
2022/05/14 06:05:21;;;;;;;0.90;0.60;;;26.40;45.80;;;;;;4943896;28;45434;-61
2022/05/14 06:07:47;;;;;;;0.75;0.60;;;26.40;45.80;;;;;;4958908;28;45297;-62
2022/05/14 06:10:14;;;;;;;0.57;0.50;;;26.40;45.80;;;;;;4925170;28;45543;-62
2022/05/14 06:12:39;;;;;;;0.93;0.63;;;26.40;45.80;;;;;;4979701;28;45639;-60
2022/05/14 06:15:09;;;;;;;1.08;0.63;;;26.40;45.80;;;;;;4971014;28;45155;-61
2022/05/14 06:17:35;;;;;;;1.05;0.90;;;26.40;45.80;;;;;;4955870;28;45556;-61
2022/05/14 06:20:01;;;;;;;0.88;0.68;;;26.40;45.70;;;;;;4941959;28;45255;-61
2022/05/14 06:22:27;;;;;;;1.23;0.70;;;26.40;45.70;;;;;;4943542;28;45354;-63
2022/05/14 06:24:52;;;;;;;2.10;0.68;;;26.40;45.70;;;;;;4978138;28;45425;-61
2022/05/14 06:27:19;;;;;;;0.88;0.52;;;26.50;45.80;;;;;;4953185;28;46277;-61
2022/05/14 06:29:46;;;;;;;1.33;0.80;;;26.50;45.70;;;;;;4975836;28;45294;-61
2022/05/14 06:32:11;;;;;;;0.60;0.60;;;26.50;45.70;;;;;;4976857;28;44694;-61
2022/05/14 06:34:37;;;;;;;1.83;0.80;;;26.50;45.70;;;;;;4976776;28;45287;-60
2022/05/14 06:37:03;;;;;;;1.70;0.90;;;26.50;45.60;;;;;;4959019;28;46872;-61
2022/05/14 06:39:28;;;;;;;0.82;0.60;;;26.50;45.60;;;;;;4979811;28;45302;-61
2022/05/14 06:41:54;;;;;;;0.65;0.60;;;26.50;45.60;;;;;;4966352;28;45430;-61
2022/05/14 06:44:20;;;;;;;2.28;0.80;;;26.60;45.50;;;;;;4957646;28;44798;-61
2022/05/14 06:46:45;;;;;;;1.48;0.80;;;26.70;45.50;;;;;;4956584;28;46045;-61
2022/05/14 06:49:12;;;;;;;0.57;0.57;;;26.70;45.40;;;;;;4975960;28;44765;-61
2022/05/14 06:51:38;;;;;;;1.13;0.70;;;26.70;45.30;;;;;;4976100;28;45282;-61
2022/05/14 06:54:05;;;;;;;1.23;0.85;;;26.80;45.20;;;;;;4924329;28;45392;-62
2022/05/14 06:56:32;;;;;;;1.10;0.60;;;26.80;45.20;;;;;;4942954;28;46501;-61
2022/05/14 06:58:58;;;;;;;0.80;0.60;;;26.90;45.10;;;;;;4954842;28;44697;-61
2022/05/14 07:01:24;;;;;;;2.10;0.85;;;26.90;45.00;;;;;;4958184;28;44720;-61
2022/05/14 07:06:40;;;;;;;2.28;0.82;;;27.00;44.90;;;;;;4945137;28;45670;-60
2022/05/14 07:09:13;;;;;;;0.80;0.70;;;26.90;44.90;;;;;;4940188;28;45330;-61
2022/05/14 07:11:41;;;;;;;1.58;0.80;;;27.00;45.00;;;;;;4972370;28;45246;-61
2022/05/14 07:14:07;;;;;;;0.70;0.57;;;27.00;45.00;;;;;;4937694;28;45268;-60
2022/05/14 07:16:33;;;;;;;2.47;1.05;;;27.00;45.00;;;;;;4965607;28;45317;-61
2022/05/14 07:18:58;;;;;;;0.75;0.65;;;27.00;44.90;;;;;;4957563;28;45622;-60
2022/05/14 07:21:24;;;;;;;0.70;0.65;;;27.00;44.90;;;;;;4954129;28;45414;-60
2022/05/14 07:23:50;;;;;;;1.13;0.63;;;27.00;44.90;;;;;;4973549;28;45695;-61
2022/05/14 07:26:16;;;;;;;0.65;0.60;;;27.00;44.90;;;;;;4979670;28;45707;-61
2022/05/14 07:28:41;;;;;;;1.05;0.63;;;27.00;44.90;;;;;;4957761;28;45286;-61
2022/05/14 07:31:08;;;;;;;0.82;0.60;;;27.00;44.90;;;;;;4953488;28;44828;-61
2022/05/14 07:33:33;;;;;;;2.60;0.60;;;27.10;44.90;;;;;;4954624;28;45471;-61
2022/05/14 07:36:07;;;;;;;1.42;0.80;;;27.10;44.80;;;;;;4970583;28;46383;-61
2022/05/14 07:38:32;;;;;;;0.85;0.65;;;27.10;44.80;;;;;;4937459;28;45271;-61
2022/05/14 07:40:58;;;;;;;0.85;0.60;;;27.10;44.70;;;;;;4954622;28;44775;-60
2022/05/14 07:43:25;;;;;;;1.85;0.90;;;27.10;44.70;;;;;;4937122;28;45493;-61
2022/05/14 07:45:52;;;;;;;0.40;0.40;;;27.10;44.70;;;;;;4939073;28;46591;-59
2022/05/14 07:48:24;;;;;;;1.67;0.73;;;27.10;44.70;;;;;;4953922;28;44938;-60
2022/05/14 07:50:49;;;;;;;0.75;0.63;;;27.20;44.70;;;;;;4962980;28;45806;-61
2022/05/14 07:53:15;;;;;;;0.70;0.70;;;27.20;44.60;;;;;;4968597;28;45106;-61
2022/05/14 07:55:43;;;;;;;0.95;0.70;;;27.20;44.60;;;;;;4952566;28;45244;-60
2022/05/14 07:58:09;;;;;;;0.60;0.60;;;27.20;44.60;;;;;;4932962;28;46330;-62
2022/05/14 08:00:35;;;;;;;1.05;0.60;;;27.20;44.60;;;;;;4925026;28;45204;-62
2022/05/14 08:03:01;;;;;;;0.90;0.80;;;27.20;44.60;;;;;;4930298;28;46370;-60
2022/05/14 08:05:26;;;;;;;1.20;0.75;;;27.20;44.50;;;;;;4959641;28;45461;-61
2022/05/14 08:07:52;;;;;;;1.42;0.82;;;27.20;44.60;;;;;;4945415;28;45265;-61
2022/05/14 08:10:18;;;;;;;0.80;0.70;;;27.20;44.50;;;;;;4965052;28;45224;-61
2022/05/14 08:12:45;;;;;;;1.10;0.60;;;27.20;44.50;;;;;;4941616;28;45559;-62
2022/05/14 08:15:12;;;;;;;0.60;0.60;;;27.20;44.60;;;;;;4931783;28;46909;-61
2022/05/14 08:17:38;;;;;;;0.93;0.70;;;27.20;44.50;;;;;;4930316;28;45407;-61
2022/05/14 08:20:05;;;;;;;1.08;0.85;;;27.30;44.60;;;;;;4964232;28;45521;-60
2022/05/14 08:25:15;;;;;;;1.08;0.60;;;27.30;44.60;;;;;;4967789;28;45112;-61
2022/05/14 08:27:47;;;;;;;0.57;0.57;;;27.30;44.60;;;;;;4937279;28;45757;-60
2022/05/14 08:30:13;;;;;;;1.65;0.60;;;27.30;44.60;;;;;;4967564;28;45498;-61
2022/05/14 08:32:39;;;;;;;0.70;0.60;;;27.30;44.50;;;;;;4951932;28;45425;-61
2022/05/14 08:35:05;;;;;;;1.27;0.80;;;27.30;44.50;;;;;;4970706;28;45281;-60
2022/05/14 08:37:30;;;;;;;0.98;0.73;;;27.30;44.50;;;;;;4967787;28;45276;-59
2022/05/14 08:39:56;;;;;;;0.70;0.68;;;27.30;45.10;;;;;;4933428;28;45473;-61
2022/05/14 08:42:22;;;;;;;0.80;0.70;;;27.40;44.50;;;;;;4968998;28;45197;-61
2022/05/14 08:44:47;;;;;;;0.70;0.68;;;27.40;44.50;;;;;;4968676;28;46193;-61
2022/05/14 08:47:36;;;;;;;0.95;0.60;;;27.40;44.50;;;;;;4970111;28;45375;-61
2022/05/14 08:50:03;;;;;;;0.57;0.50;;;27.40;44.40;;;;;;4951331;28;45577;-61
2022/05/14 08:52:29;;;;;;;1.42;0.60;;;27.40;44.50;;;;;;4934992;28;46027;-61
2022/05/14 08:55:00;;;;;;;1.08;0.70;;;27.40;44.50;;;;;;4917547;28;45488;-61
2022/05/14 08:57:36;;;;;;;1.52;0.80;;;27.40;44.40;;;;;;4951784;28;45466;-61
2022/05/14 09:00:02;;;;;;;0.63;0.60;;;27.40;44.40;;;;;;4970657;28;45284;-61
2022/05/14 09:02:33;;;;;;;0.50;0.50;;;27.40;44.50;;;;;;4935350;28;46150;-61
2022/05/14 09:05:12;;;;;;;0.57;0.55;;;27.40;44.40;;;;;;4951541;28;45689;-61
2022/05/14 09:07:38;;;;;;;1.60;0.90;;;27.40;44.40;;;;;;4951468;28;45472;-60
2022/05/14 09:10:06;;;;;;;1.25;0.85;;;27.40;44.40;;;;;;4934429;28;45243;-60
2022/05/14 09:12:34;;;;;;;1.13;0.70;;;27.40;44.40;;;;;;4950360;28;45873;-59
2022/05/14 09:15:13;;;;;;;0.75;0.70;;;27.40;44.40;;;;;;4964838;28;46183;-60
2022/05/14 09:17:39;;;;;;;0.63;0.50;;;27.50;44.40;;;;;;4948366;28;45332;-62
2022/05/14 09:20:05;;;;;;;0.63;0.63;;;27.40;44.30;;;;;;4967086;28;45387;-60
2022/05/14 09:22:32;;;;;;;0.73;0.60;;;27.40;44.30;;;;;;4951264;28;45649;-62
2022/05/14 09:25:21;;;;;;;0.80;0.60;;;27.40;44.30;;;;;;4948685;28;45339;-60
2022/05/14 09:28:04;;;;;;;0.55;0.45;;;27.40;44.20;;;;;;4950211;28;45359;-60
2022/05/14 09:30:35;;;;;;;0.90;0.70;;;27.40;44.30;;;;;;4951110;28;45368;-61
2022/05/14 09:33:02;;;;;;;0.68;0.60;;;27.40;44.30;;;;;;4972687;28;44767;-62
2022/05/14 09:35:29;;;;;;;0.68;0.57;;;27.50;44.30;;;;;;4939949;28;46103;-62
2022/05/14 09:38:17;;;;;;;0.60;0.60;;;27.50;44.30;;;;;;4974563;28;45562;-62
2022/05/14 09:40:42;;;;;;;0.80;0.60;;;27.50;44.20;;;;;;4956055;28;45440;-62
2022/05/14 09:43:17;;;;;;;0.50;0.50;;;27.50;44.20;;;;;;4971496;28;45526;-62
2022/05/14 09:46:04;;;;;;;1.50;0.60;;;27.50;44.10;;;;;;4971559;28;46428;-61
2022/05/14 09:48:51;;;;;;;1.35;0.60;;;27.50;44.10;;;;;;4950320;28;45275;-62
2022/05/14 09:51:36;;;;;;;1.08;0.80;;;27.50;44.10;;;;;;4969329;28;45145;-60
2022/05/14 09:54:25;;;;;;;0.70;0.60;;;27.50;44.10;;;;;;4971091;28;45618;-61
2022/05/14 09:57:03;;;;;;;0.93;0.70;;;27.60;44.10;;;;;;4933748;28;45236;-61
2022/05/14 09:59:54;;;;;;;0.70;0.60;;;27.50;44.10;;;;;;4961156;28;44890;-61
2022/05/14 10:02:34;;;;;;;0.93;0.85;;;27.50;44.60;;;;;;4950105;28;45590;-61
2022/05/14 10:05:32;;;;;;;1.20;0.80;;;27.60;44.00;;;;;;4935594;28;44717;-62
2022/05/14 10:08:28;;;;;;;1.20;0.70;;;27.60;44.00;;;;;;4949455;28;46045;-61
2022/05/14 10:11:15;;;;;;;0.60;0.52;;;27.60;43.90;;;;;;4948209;28;46272;-59
2022/05/14 10:14:29;;;;;;;0.90;0.70;;;27.60;43.70;;;;;;4966667;28;45347;-60
2022/05/14 10:17:07;;;;;;;0.77;0.60;;;27.60;43.70;;;;;;4928646;28;46941;-61
2022/05/14 10:19:41;;;;;;;0.60;0.50;;;27.60;43.60;;;;;;4963135;28;47321;-60
2022/05/14 10:22:23;;;;;;;0.52;0.47;;;27.60;43.70;;;;;;4944408;28;45150;-61
2022/05/14 10:27:49;;;;;;;0.80;0.73;;;27.60;43.70;;;;;;4936322;28;45514;-61
2022/05/14 10:30:25;;;;;;;0.55;0.50;;;27.60;43.80;;;;;;4964586;28;46431;-61
2022/05/14 10:33:06;;;;;;;1.00;0.80;;;27.60;43.70;;;;;;4957200;28;45247;-61
2022/05/14 10:35:54;;;;;;;0.50;0.50;;;27.60;43.70;;;;;;4934756;28;46944;-61
2022/05/14 10:38:41;;;;;;;0.85;0.68;;;27.60;43.80;;;;;;4931087;28;45393;-62
2022/05/14 10:41:07;;;;;;;0.75;0.60;;;27.70;43.80;;;;;;4964176;28;45372;-60
2022/05/14 10:43:48;;;;;;;0.50;0.50;;;27.70;43.80;;;;;;4931420;28;45199;-61
2022/05/14 10:46:18;;;;;;;3.30;0.52;;;27.70;43.80;;;;;;4947386;28;45507;-62
2022/05/14 10:49:13;;;;;;;1.92;0.85;;;27.70;43.80;;;;;;4968335;28;45345;-62
2022/05/14 10:51:47;;;;;;;0.80;0.63;;;27.70;43.70;;;;;;4947209;28;46177;-62
2022/05/14 10:54:17;;;;;;;1.10;0.38;;;27.70;43.70;;;;;;4947933;28;45370;-66
2022/05/14 10:57:15;;;;;;;0.60;0.50;;;27.80;43.80;;;;;;4947959;28;45458;-62
2022/05/14 10:59:48;;;;;;;0.98;0.60;;;27.70;43.60;;;;;;4946579;28;45580;-62
2022/05/14 11:02:23;;;;;;;2.25;0.60;;;27.70;43.70;;;;;;4964564;28;45359;-59
2022/05/14 11:04:51;;;;;;;0.75;0.70;;;27.70;43.60;;;;;;4946428;28;45640;-61
2022/05/14 11:07:35;;;;;;;0.90;0.70;;;27.70;43.70;;;;;;4950866;28;45596;-60
2022/05/14 11:10:14;;;;;;;0.98;0.77;;;27.70;43.60;;;;;;4966300;28;45619;-61
2022/05/14 11:12:40;;;;;;;0.55;0.55;;;27.80;43.70;;;;;;4964964;28;45412;-61
2022/05/14 11:15:27;;;;;;;0.98;0.50;;;27.70;43.70;;;;;;4918438;28;45696;-61
2022/05/14 11:18:04;;;;;;;1.02;0.70;;;27.80;43.60;;;;;;4932666;28;45317;-61
2022/05/14 11:20:31;;;;;;;0.85;0.65;;;27.80;43.70;;;;;;4950818;28;45545;-61
2022/05/14 11:23:10;;;;;;;0.65;0.63;;;27.80;43.70;;;;;;4932375;28;45218;-61
2022/05/14 11:25:36;;;;;;;0.98;0.75;;;27.80;43.60;;;;;;4937033;28;45463;-61
2022/05/14 11:28:08;;;;;;;1.25;0.60;;;27.80;43.70;;;;;;4935889;28;46636;-61
2022/05/14 11:30:40;;;;;;;1.27;0.55;;;27.80;43.70;;;;;;4952518;28;45103;-61
2022/05/14 11:33:28;;;;;;;0.68;0.60;;;27.80;43.60;;;;;;4954342;28;45302;-61
2022/05/14 11:35:56;;;;;;;1.63;0.77;;;27.80;43.50;;;;;;4969397;28;45332;-61
2022/05/14 11:38:24;;;;;;;0.88;0.60;;;27.80;43.70;;;;;;4952420;28;45027;-61
2022/05/14 11:41:10;;;;;;;0.82;0.50;;;27.80;43.60;;;;;;4972083;28;44967;-62
2022/05/14 11:43:42;;;;;;;1.00;0.60;;;27.80;43.50;;;;;;4948647;28;45430;-61
2022/05/14 11:46:53;;;;;;;0.88;0.57;;;27.80;43.60;;;;;;4951285;28;45328;-62
2022/05/14 11:49:38;;;;;;;0.75;0.50;;;27.80;43.40;;;;;;4966890;28;44870;-62
2022/05/14 11:52:16;;;;;;;1.38;0.75;;;27.80;43.30;;;;;;4952366;28;45663;-61
2022/05/14 11:54:45;;;;;;;1.27;0.80;;;27.80;43.50;;;;;;4939191;28;45686;-62
2022/05/14 11:57:20;;;;;;;0.70;0.52;;;27.80;43.50;;;;;;4974654;28;45317;-61
2022/05/14 12:00:16;;;;;;;1.10;0.80;;;27.80;43.40;;;;;;4975974;28;45471;-60
2022/05/14 12:03:05;;;;;;;1.00;0.82;;;27.80;43.30;;;;;;4972653;28;45361;-61
2022/05/14 12:05:56;;;;;;;1.05;0.60;;;27.90;43.40;;;;;;4976808;28;46220;-60
2022/05/14 12:08:47;;;;;;;1.17;0.52;;;27.90;43.40;;;;;;4972514;28;45208;-60
2022/05/14 12:11:29;;;;;;;0.65;0.60;;;27.80;43.30;;;;;;4974666;28;45818;-61
2022/05/14 12:14:15;;;;;;;0.97;0.70;;;27.90;43.40;;;;;;4974936;28;45423;-60
2022/05/14 12:16:51;;;;;;;0.82;0.60;;;27.90;43.50;;;;;;4971061;28;45377;-61
2022/05/14 12:19:24;;;;;;;0.70;0.55;;;27.90;43.60;;;;;;4959278;28;45002;-61
2022/05/14 12:21:59;;;;;;;1.00;0.70;;;27.90;43.50;;;;;;4975663;28;44796;-59
2022/05/14 12:24:27;;;;;;;0.43;0.43;;;27.90;43.50;;;;;;4955893;28;45364;-61
2022/05/14 12:26:53;;;;;;;1.17;0.50;;;27.90;43.60;;;;;;4961698;28;46088;-60
2022/05/14 12:29:28;;;;;;;0.47;0.47;;;27.90;43.60;;;;;;4977466;28;45382;-59
2022/05/14 12:34:56;;;;;;;0.98;0.70;;;27.90;43.30;;;;;;4977543;28;45116;-61
2022/05/14 12:37:48;;;;;;;0.85;0.82;;;27.90;43.50;;;;;;4970174;28;46439;-59
2022/05/14 12:40:25;;;;;;;1.25;0.80;;;27.90;43.30;;;;;;4950953;28;45557;-60
2022/05/14 12:42:51;;;;;;;0.77;0.60;;;27.90;43.40;;;;;;4941456;28;45467;-62
2022/05/14 12:45:17;;;;;;;1.52;0.60;;;27.90;43.40;;;;;;4922437;28;45662;-62
2022/05/14 12:47:43;;;;;;;0.73;0.60;;;27.90;43.40;;;;;;4938032;28;45685;-59
2022/05/14 12:50:34;;;;;;;1.33;0.70;;;27.90;43.40;;;;;;4953914;28;45110;-60
2022/05/14 12:53:05;;;;;;;0.98;0.60;;;27.90;43.30;;;;;;4933701;28;45855;-62
2022/05/14 12:55:31;;;;;;;0.55;0.50;;;27.90;43.40;;;;;;4953031;28;45547;-61
2022/05/14 12:57:57;;;;;;;0.60;0.60;;;27.90;43.40;;;;;;4951160;28;47227;-61
2022/05/14 13:00:22;;;;;;;0.63;0.63;;;27.90;44.00;;;;;;4942161;28;45309;-59
2022/05/14 13:02:58;;;;;;;1.23;0.70;;;27.90;43.40;;;;;;4935611;28;45451;-61
2022/05/14 13:05:31;;;;;;;0.90;0.68;;;28.00;43.40;;;;;;4969785;28;45607;-61
2022/05/14 13:08:02;;;;;;;1.10;0.65;;;27.90;43.40;;;;;;4953092;28;45436;-60
2022/05/14 13:10:28;;;;;;;1.08;0.70;;;27.90;43.40;;;;;;4935348;28;45220;-62
2022/05/14 13:12:58;;;;;;;0.90;0.63;;;28.00;43.50;;;;;;4964418;28;45372;-61
2022/05/14 13:15:32;;;;;;;0.85;0.82;;;27.90;43.40;;;;;;4967702;28;45438;-60
2022/05/14 13:17:58;;;;;;;0.50;0.50;;;27.90;43.30;;;;;;4951571;28;46237;-62
2022/05/14 13:20:24;;;;;;;0.95;0.70;;;27.90;43.40;;;;;;4968918;28;45286;-63
2022/05/14 13:23:02;;;;;;;0.73;0.52;;;28.00;44.10;;;;;;4972301;28;45305;-63
2022/05/14 13:25:28;;;;;;;0.98;0.60;;;27.90;43.20;;;;;;4947129;28;45328;-62
2022/05/14 13:27:53;;;;;;;0.63;0.63;;;27.90;43.40;;;;;;4971159;28;45839;-61
2022/05/14 13:30:33;;;;;;;1.40;0.60;;;28.00;43.40;;;;;;4956486;28;45293;-61
2022/05/14 13:33:10;;;;;;;0.85;0.57;;;28.00;43.20;;;;;;4955900;28;45360;-61
2022/05/14 13:38:21;;;;;;;1.10;0.50;;;28.00;43.30;;;;;;4970430;28;45384;-62
2022/05/14 13:40:52;;;;;;;1.27;0.68;;;28.00;43.20;;;;;;4939796;28;45068;-61
2022/05/14 13:43:26;;;;;;;0.75;0.70;;;28.00;43.20;;;;;;4968834;28;45198;-62
2022/05/14 13:45:56;;;;;;;0.65;0.60;;;28.00;43.10;;;;;;4970962;28;44989;-61
2022/05/14 13:48:41;;;;;;;0.70;0.60;;;28.00;43.10;;;;;;4954271;28;45469;-61
2022/05/14 13:51:19;;;;;;;2.28;0.80;;;28.00;43.10;;;;;;4938465;28;45351;-62
2022/05/14 13:53:52;;;;;;;0.70;0.60;;;28.00;43.10;;;;;;4971705;28;45220;-60
2022/05/14 13:56:21;;;;;;;0.75;0.75;;;28.00;43.10;;;;;;4967665;28;45356;-59
2022/05/14 13:59:05;;;;;;;0.73;0.50;;;28.00;43.10;;;;;;4969166;28;45263;-61
2022/05/14 14:01:46;;;;;;;3.13;0.65;;;28.00;42.90;;;;;;4952052;28;45172;-61
2022/05/14 14:04:24;;;;;;;0.40;0.40;;;28.10;43.00;;;;;;4933766;28;45665;-61
2022/05/14 14:06:57;;;;;;;0.43;0.43;;;28.00;43.00;;;;;;4970143;28;45236;-61
2022/05/14 14:09:22;;;;;;;0.70;0.70;;;28.00;43.00;;;;;;4967740;28;45283;-62
2022/05/14 14:11:49;;;;;;;1.48;0.70;;;28.00;43.00;;;;;;4967585;28;44918;-62
2022/05/14 14:14:14;;;;;;;0.70;0.60;;;28.00;43.00;;;;;;4950574;28;45398;-60
2022/05/14 14:16:40;;;;;;;1.52;0.60;;;28.00;43.00;;;;;;4951243;28;44951;-61
2022/05/14 14:19:06;;;;;;;0.70;0.70;;;28.00;43.00;;;;;;4934838;28;45359;-61
2022/05/14 14:21:32;;;;;;;0.80;0.75;;;28.10;43.00;;;;;;4950863;28;44830;-62
2022/05/14 14:23:58;;;;;;;0.70;0.70;;;28.00;43.00;;;;;;4954070;28;45617;-62
2022/05/14 14:26:23;;;;;;;0.57;0.50;;;28.00;43.00;;;;;;4950758;28;45286;-61
2022/05/14 14:28:49;;;;;;;1.00;0.60;;;28.00;42.90;;;;;;4973646;28;45473;-61
2022/05/14 14:31:15;;;;;;;0.93;0.45;;;28.00;42.90;;;;;;4967737;28;46370;-61
2022/05/14 14:33:41;;;;;;;0.85;0.82;;;28.10;42.90;;;;;;4972165;28;45215;-61
2022/05/14 14:36:07;;;;;;;0.77;0.68;;;28.10;42.90;;;;;;4948636;28;45175;-61
2022/05/14 14:38:33;;;;;;;0.77;0.70;;;28.10;42.90;;;;;;4915407;28;47043;-60
2022/05/14 14:40:59;;;;;;;0.95;0.63;;;28.10;42.90;;;;;;4964298;28;45204;-61
2022/05/14 14:43:25;;;;;;;0.70;0.70;;;28.10;42.80;;;;;;4952455;28;44843;-62
2022/05/14 14:45:51;;;;;;;1.05;0.65;;;28.10;42.90;;;;;;4932094;28;45202;-59
2022/05/14 14:48:17;;;;;;;1.45;0.60;;;28.10;42.90;;;;;;4949584;28;45395;-59
2022/05/14 14:50:43;;;;;;;1.67;0.90;;;28.10;42.90;;;;;;4933670;28;46309;-61
2022/05/14 14:53:09;;;;;;;1.85;0.63;;;28.10;42.80;;;;;;4950096;28;45257;-61
2022/05/14 14:55:35;;;;;;;1.92;0.60;;;28.10;42.70;;;;;;4966428;28;45529;-60
2022/05/14 14:58:01;;;;;;;1.08;0.80;;;28.10;42.70;;;;;;4952116;28;46448;-61
2022/05/14 15:00:29;;;;;;;1.02;0.70;;;28.10;42.70;;;;;;4954793;28;45898;-60
2022/05/14 15:03:09;;;;;;;1.20;0.60;;;28.10;42.80;;;;;;4937769;28;45296;-61
2022/05/14 15:05:39;;;;;;;0.90;0.73;;;28.10;42.60;;;;;;4966431;28;45111;-62
2022/05/14 15:08:05;;;;;;;0.90;0.57;;;28.10;42.60;;;;;;4953304;28;45476;-61
2022/05/14 15:10:31;;;;;;;0.90;0.60;;;28.10;42.60;;;;;;4969557;28;44995;-62
2022/05/14 15:13:01;;;;;;;0.60;0.60;;;28.10;42.60;;;;;;4947207;28;44806;-62
2022/05/14 15:15:26;;;;;;;0.70;0.70;;;28.10;42.60;;;;;;4951864;28;45288;-63
2022/05/14 15:17:52;;;;;;;0.73;0.70;;;28.10;42.60;;;;;;4954750;28;45838;-63
2022/05/14 15:20:18;;;;;;;0.93;0.73;;;28.10;42.60;;;;;;4969582;28;45268;-62
2022/05/14 15:22:43;;;;;;;1.52;0.70;;;28.20;42.70;;;;;;4966625;28;45536;-61
2022/05/14 15:25:10;;;;;;;1.02;0.63;;;28.10;42.60;;;;;;4928451;28;45407;-61
2022/05/14 15:27:35;;;;;;;1.35;0.82;;;28.10;42.60;;;;;;4953701;28;45562;-61
2022/05/14 15:30:01;;;;;;;1.23;0.90;;;28.10;42.60;;;;;;4971547;28;45261;-60
2022/05/14 15:32:27;;;;;;;0.68;0.50;;;28.10;42.60;;;;;;4949810;28;45324;-61
2022/05/14 15:34:53;;;;;;;0.57;0.50;;;28.10;42.60;;;;;;4939478;28;45122;-61
2022/05/14 15:37:19;;;;;;;1.13;0.75;;;28.20;42.70;;;;;;4965819;28;46598;-61
2022/05/14 15:39:48;;;;;;;0.75;0.70;;;28.10;42.60;;;;;;4955742;28;44709;-62
2022/05/14 15:42:20;;;;;;;0.70;0.70;;;28.10;42.60;;;;;;4933957;28;45408;-61
2022/05/14 15:44:54;;;;;;;0.75;0.75;;;28.10;42.60;;;;;;4921411;28;45255;-61
2022/05/14 15:47:21;;;;;;;0.80;0.77;;;28.20;42.60;;;;;;4953589;28;45389;-61
2022/05/14 15:49:51;;;;;;;0.90;0.70;;;28.20;42.60;;;;;;4974970;28;45398;-61
2022/05/14 15:52:18;;;;;;;0.77;0.55;;;28.20;42.70;;;;;;4955822;28;45057;-61
2022/05/14 15:54:43;;;;;;;1.05;0.70;;;28.10;42.60;;;;;;4948103;28;44784;-62
2022/05/14 15:57:09;;;;;;;2.13;0.70;;;28.20;42.70;;;;;;4950759;28;48299;-62
2022/05/14 15:59:35;;;;;;;0.70;0.60;;;28.20;42.60;;;;;;4976045;28;45240;-62
2022/05/14 16:02:01;;;;;;;0.70;0.70;;;28.20;42.60;;;;;;4949001;28;45298;-63
2022/05/14 16:04:27;;;;;;;0.68;0.68;;;28.20;42.70;;;;;;4966147;28;45329;-61
2022/05/14 16:06:53;;;;;;;1.00;0.77;;;28.20;42.60;;;;;;4955480;28;45544;-61
2022/05/14 16:09:18;;;;;;;2.38;0.80;;;28.20;42.60;;;;;;4948965;28;45129;-61
2022/05/14 16:17:12;;;;;;;0.70;0.70;;;28.20;42.60;;;;;;4965844;28;48552;-61
2022/05/14 16:19:38;;;;;;;2.08;0.70;;;28.20;42.70;;;;;;4946419;28;45523;-61
2022/05/14 16:22:03;;;;;;;1.85;0.75;;;28.20;42.60;;;;;;4949289;28;45547;-62
2022/05/14 16:24:29;;;;;;;0.88;0.70;;;28.20;42.70;;;;;;4948651;28;44978;-63
2022/05/14 16:26:55;;;;;;;0.80;0.63;;;28.20;42.60;;;;;;4970731;28;46159;-61